Time;durP1;ratioP1;P1;durP2;ratioP2;P2;SDS_P1;SDS_P2;PMS_P1;PMS_P2;Temp;Humidity;BMP_temperature;BMP_pressure;BME280_temperature;BME280_humidity;BME280_pressure;Samples;Min_cycle;Max_cycle;Signal;HPM_P1;HPM_P2
2022/01/02 00:01:42;;;;;;;8.43;4.60;;;11.60;99.90;;;;;;5078708;28;20516;-60
2022/01/02 00:04:13;;;;;;;10.63;4.88;;;11.60;99.90;;;;;;5100468;28;20598;-59
2022/01/02 00:06:45;;;;;;;6.90;4.18;;;11.60;99.90;;;;;;5080408;28;20043;-61
2022/01/02 00:09:19;;;;;;;8.07;4.45;;;11.50;99.90;;;;;;5093578;28;20051;-61
2022/01/02 00:11:49;;;;;;;9.20;4.55;;;11.50;99.90;;;;;;5093984;28;20393;-61
2022/01/02 00:14:20;;;;;;;7.82;4.53;;;11.50;99.90;;;;;;5093808;28;20036;-59
2022/01/02 00:16:46;;;;;;;5.35;4.45;;;11.50;99.90;;;;;;5093255;28;20054;-61
2022/01/02 00:19:20;;;;;;;10.90;5.60;;;11.50;99.90;;;;;;5093209;28;20040;-59
2022/01/02 00:21:47;;;;;;;9.90;4.78;;;11.50;99.90;;;;;;5093325;28;20040;-58
2022/01/02 00:24:18;;;;;;;12.23;5.25;;;11.40;99.90;;;;;;5093317;28;20040;-58
2022/01/02 00:26:48;;;;;;;9.05;5.10;;;11.40;99.90;;;;;;5092623;28;20500;-60
2022/01/02 00:29:14;;;;;;;4.93;4.07;;;11.40;99.90;;;;;;5093417;28;20040;-61
2022/01/02 00:31:41;;;;;;;9.10;5.40;;;11.40;99.90;;;;;;5093128;28;20587;-59
2022/01/02 00:34:08;;;;;;;12.15;5.60;;;11.40;99.90;;;;;;5099822;28;20084;-59
2022/01/02 00:36:34;;;;;;;9.55;4.82;;;11.40;99.90;;;;;;5111151;28;20475;-61
2022/01/02 00:39:00;;;;;;;9.10;5.20;;;11.30;99.90;;;;;;5105471;28;20040;-61
2022/01/02 00:41:33;;;;;;;7.63;4.80;;;11.40;99.90;;;;;;5101902;28;20030;-61
2022/01/02 00:44:06;;;;;;;7.63;4.93;;;11.40;99.90;;;;;;5103895;28;20036;-61
2022/01/02 00:46:34;;;;;;;6.60;4.90;;;11.40;99.90;;;;;;5102322;28;20039;-61
2022/01/02 00:49:04;;;;;;;8.48;5.15;;;11.40;99.90;;;;;;5111110;28;20048;-58
2022/01/02 00:51:47;;;;;;;13.40;5.50;;;11.40;99.90;;;;;;5103796;28;20038;-62
2022/01/02 00:54:17;;;;;;;10.02;5.22;;;11.40;99.90;;;;;;5108770;28;20568;-62
2022/01/02 00:56:45;;;;;;;8.82;5.57;;;11.40;99.90;;;;;;5104209;28;20047;-61
2022/01/02 00:59:37;;;;;;;9.80;4.55;;;11.40;99.90;;;;;;5077172;28;20040;-61
2022/01/02 01:02:04;;;;;;;10.27;4.43;;;11.40;99.90;;;;;;5096351;28;20074;-61
2022/01/02 01:04:32;;;;;;;7.25;5.18;;;11.40;99.90;;;;;;5102884;28;20408;-60
2022/01/02 01:07:05;;;;;;;7.72;4.85;;;11.40;99.90;;;;;;5088347;28;20089;-61
2022/01/02 01:09:32;;;;;;;9.38;4.75;;;11.40;99.90;;;;;;5094072;28;20514;-62
2022/01/02 01:12:00;;;;;;;6.38;4.55;;;11.40;99.90;;;;;;5106696;28;20044;-61
2022/01/02 01:14:27;;;;;;;9.30;5.38;;;11.40;99.90;;;;;;5101126;28;20500;-61
2022/01/02 01:16:53;;;;;;;7.10;4.68;;;11.40;99.90;;;;;;5095202;28;20561;-61
2022/01/02 01:19:19;;;;;;;11.63;5.15;;;11.30;99.90;;;;;;5089530;28;20044;-61
2022/01/02 01:21:45;;;;;;;10.70;5.47;;;11.30;99.90;;;;;;5086122;28;20110;-61
2022/01/02 01:24:11;;;;;;;6.78;4.25;;;11.40;99.90;;;;;;5096031;28;20110;-62
2022/01/02 01:26:38;;;;;;;8.57;4.22;;;11.40;99.90;;;;;;5102604;28;20544;-61
2022/01/02 01:29:03;;;;;;;13.80;5.28;;;11.30;99.90;;;;;;5090816;28;20123;-61
2022/01/02 01:31:29;;;;;;;7.27;5.03;;;11.30;99.90;;;;;;5103928;28;20114;-62
2022/01/02 01:33:54;;;;;;;10.33;5.57;;;11.30;99.90;;;;;;5103000;28;20028;-62
2022/01/02 01:36:20;;;;;;;11.03;5.40;;;11.30;99.90;;;;;;5100957;28;20290;-60
2022/01/02 01:38:46;;;;;;;10.70;5.83;;;11.30;99.90;;;;;;5100605;28;20327;-61
2022/01/02 01:41:21;;;;;;;10.30;7.10;;;11.30;99.90;;;;;;5103200;28;20032;-61
2022/01/02 01:44:06;;;;;;;7.88;4.97;;;11.30;99.90;;;;;;5074689;28;20039;-61
2022/01/02 01:46:32;;;;;;;10.88;5.88;;;11.30;99.90;;;;;;5090574;28;20047;-62
2022/01/02 01:48:58;;;;;;;14.23;6.30;;;11.20;99.90;;;;;;5106805;28;20040;-61
2022/01/02 01:51:25;;;;;;;11.30;5.47;;;11.20;99.90;;;;;;5099806;28;20545;-62
2022/01/02 01:53:51;;;;;;;11.93;6.50;;;11.20;99.90;;;;;;5100849;28;20124;-62
2022/01/02 01:56:17;;;;;;;14.38;5.72;;;11.20;99.90;;;;;;5090901;28;20072;-62
2022/01/02 01:58:43;;;;;;;8.30;5.63;;;11.20;99.90;;;;;;5107727;28;20090;-59
2022/01/02 02:01:09;;;;;;;;;;;11.20;99.90;;;;;;5093662;28;20051;-62
2022/01/02 02:03:35;;;;;;;8.30;6.00;;;11.20;99.90;;;;;;5101973;28;20057;-62
2022/01/02 02:06:01;;;;;;;13.88;6.88;;;11.20;99.90;;;;;;5091002;28;20036;-62
2022/01/02 02:08:27;;;;;;;10.13;5.38;;;11.20;99.90;;;;;;5090664;28;20051;-60
2022/01/02 02:10:56;;;;;;;10.60;6.20;;;11.10;99.90;;;;;;5091345;28;20047;-62
2022/01/02 02:13:22;;;;;;;10.30;6.50;;;11.10;99.90;;;;;;5091222;28;20080;-62
2022/01/02 02:15:48;;;;;;;;;;;11.10;99.90;;;;;;5091277;28;20039;-61
2022/01/02 02:18:14;;;;;;;9.75;5.18;;;11.10;99.90;;;;;;5090921;28;19923;-62
2022/01/02 02:20:40;;;;;;;13.25;6.18;;;11.10;99.90;;;;;;5090810;28;20459;-61
2022/01/02 02:23:05;;;;;;;12.00;6.07;;;11.10;99.90;;;;;;5090461;28;20120;-63
2022/01/02 02:25:34;;;;;;;9.18;5.63;;;11.10;99.90;;;;;;5090901;28;20109;-61
2022/01/02 02:28:10;;;;;;;13.13;6.80;;;11.10;99.90;;;;;;5090553;28;20052;-62
2022/01/02 02:30:37;;;;;;;11.45;6.32;;;11.10;99.90;;;;;;5090722;28;20028;-60
2022/01/02 02:33:06;;;;;;;10.20;5.88;;;11.10;99.90;;;;;;5102961;28;20085;-62
2022/01/02 02:35:33;;;;;;;10.98;5.72;;;11.10;99.90;;;;;;5097960;28;20389;-62
2022/01/02 02:37:59;;;;;;;10.88;5.82;;;11.20;99.90;;;;;;5091726;28;20039;-61
2022/01/02 02:40:28;;;;;;;12.98;5.85;;;11.10;99.90;;;;;;5098640;28;20454;-60
2022/01/02 02:43:26;;;;;;;12.75;5.53;;;11.10;99.90;;;;;;5100391;28;20054;-61
2022/01/02 02:51:26;;;;;;;12.95;6.10;;;11.10;99.90;;;;;;5107188;28;20077;-62
2022/01/02 02:53:52;;;;;;;15.10;5.78;;;11.10;99.90;;;;;;5099360;28;20048;-61
2022/01/02 02:56:27;;;;;;;8.68;5.93;;;11.10;99.90;;;;;;5112346;28;20040;-60
2022/01/02 02:58:55;;;;;;;10.80;6.38;;;11.10;99.90;;;;;;5079078;28;20044;-60
2022/01/02 03:01:23;;;;;;;11.40;6.30;;;11.10;99.90;;;;;;5093615;28;20400;-59
2022/01/02 03:03:49;;;;;;;12.73;6.05;;;11.10;99.90;;;;;;5080196;28;20115;-59
2022/01/02 03:06:15;;;;;;;8.40;5.45;;;11.10;99.90;;;;;;5105940;28;20404;-58
2022/01/02 03:08:41;;;;;;;;;;;11.10;99.90;;;;;;5092335;28;20039;-60
2022/01/02 03:11:10;;;;;;;9.45;6.00;;;11.10;99.90;;;;;;5104234;28;19923;-59
2022/01/02 03:13:36;;;;;;;8.98;5.25;;;11.00;99.90;;;;;;5093370;28;20119;-61
2022/01/02 03:16:02;;;;;;;12.63;6.47;;;11.00;99.90;;;;;;5096471;28;20186;-60
2022/01/02 03:18:28;;;;;;;13.00;6.10;;;11.00;99.90;;;;;;5107568;28;20040;-61
2022/01/02 03:20:53;;;;;;;6.10;5.47;;;11.00;99.90;;;;;;5098695;28;20109;-58
2022/01/02 03:23:19;;;;;;;10.00;5.53;;;11.00;99.90;;;;;;5091247;28;20277;-60
2022/01/02 03:25:45;;;;;;;11.43;5.80;;;11.10;99.90;;;;;;5099561;28;20408;-61
2022/01/02 03:28:10;;;;;;;11.38;6.15;;;11.00;99.90;;;;;;5102591;28;20285;-60
2022/01/02 03:30:36;;;;;;;6.95;4.65;;;11.10;99.90;;;;;;5081176;28;20062;-62
2022/01/02 03:33:02;;;;;;;12.75;6.80;;;11.10;99.90;;;;;;5106344;28;20050;-59
2022/01/02 03:35:27;;;;;;;9.80;6.03;;;11.10;99.90;;;;;;5077792;28;20120;-60
2022/01/02 03:37:53;;;;;;;11.65;6.18;;;11.10;99.90;;;;;;5110120;28;20038;-58
2022/01/02 03:40:19;;;;;;;11.93;4.93;;;11.10;99.90;;;;;;5094477;28;20074;-60
2022/01/02 03:42:45;;;;;;;8.90;5.35;;;11.10;99.90;;;;;;5100324;28;20038;-62
2022/01/02 03:45:11;;;;;;;12.35;6.85;;;11.10;99.90;;;;;;5083055;28;20040;-60
2022/01/02 03:47:36;;;;;;;12.23;6.15;;;11.10;99.90;;;;;;5101342;28;20036;-61
2022/01/02 03:50:04;;;;;;;15.40;5.90;;;11.10;99.90;;;;;;5076777;28;20068;-61
2022/01/02 03:52:30;;;;;;;11.68;5.50;;;11.10;99.90;;;;;;5106310;28;20496;-59
2022/01/02 03:54:56;;;;;;;15.50;6.20;;;11.10;99.90;;;;;;5093762;28;20043;-61
2022/01/02 03:57:21;;;;;;;11.03;5.70;;;11.10;99.90;;;;;;5100947;28;20028;-60
2022/01/02 03:59:47;;;;;;;16.13;6.23;;;11.10;99.90;;;;;;5083408;28;20074;-61
2022/01/02 04:02:13;;;;;;;12.10;6.20;;;11.10;99.90;;;;;;5071983;28;20287;-60
2022/01/02 04:04:38;;;;;;;9.47;5.23;;;11.10;99.90;;;;;;5071316;28;20035;-59
2022/01/02 04:07:05;;;;;;;9.73;5.63;;;11.10;99.90;;;;;;5071714;28;20270;-61
2022/01/02 04:09:30;;;;;;;13.90;5.25;;;11.10;99.90;;;;;;5090922;28;20047;-59
2022/01/02 04:11:56;;;;;;;11.82;6.05;;;11.10;99.90;;;;;;5093753;28;20036;-60
2022/01/02 04:14:23;;;;;;;19.77;5.65;;;11.10;99.90;;;;;;5075471;28;20079;-61
2022/01/02 04:16:49;;;;;;;12.55;6.20;;;11.10;99.90;;;;;;5093050;28;20040;-60
2022/01/02 04:19:14;;;;;;;13.60;5.70;;;11.10;99.90;;;;;;5093373;28;20055;-61
2022/01/02 04:21:40;;;;;;;12.25;5.70;;;11.10;99.90;;;;;;5093631;28;20135;-61
2022/01/02 04:24:06;;;;;;;17.90;7.10;;;11.10;99.90;;;;;;5093371;28;20556;-61
2022/01/02 04:26:32;;;;;;;13.70;5.13;;;11.10;99.90;;;;;;5093070;28;20421;-59
2022/01/02 04:28:59;;;;;;;12.57;5.88;;;11.10;99.90;;;;;;5093193;28;20058;-61
2022/01/02 04:31:24;;;;;;;10.45;5.78;;;11.10;99.90;;;;;;5093450;28;20115;-61
2022/01/02 04:33:51;;;;;;;15.97;6.50;;;11.10;99.90;;;;;;5109018;28;20443;-58
2022/01/02 04:36:16;;;;;;;16.67;7.32;;;11.10;99.90;;;;;;5103548;28;20865;-62
2022/01/02 04:38:42;;;;;;;17.92;5.05;;;11.20;99.90;;;;;;5105873;28;20086;-61
2022/01/02 04:41:09;;;;;;;9.25;5.32;;;11.20;99.90;;;;;;5099627;28;20032;-61
2022/01/02 04:43:34;;;;;;;;;;;11.20;99.90;;;;;;5111503;28;20031;-62
2022/01/02 04:46:00;;;;;;;12.57;5.63;;;11.20;99.90;;;;;;5099395;28;19922;-60
2022/01/02 04:48:26;;;;;;;13.05;5.00;;;11.20;99.90;;;;;;5095034;28;20107;-61
2022/01/02 04:50:52;;;;;;;15.57;5.60;;;11.20;99.90;;;;;;5106936;28;20093;-62
2022/01/02 04:53:20;;;;;;;10.27;4.47;;;11.30;99.90;;;;;;5075678;28;20043;-61
2022/01/02 04:55:45;;;;;;;15.50;5.18;;;11.30;99.90;;;;;;5110756;28;20301;-61
2022/01/02 04:58:11;;;;;;;13.63;4.88;;;11.30;99.90;;;;;;5094027;28;20036;-61
2022/01/02 05:00:37;;;;;;;13.60;5.60;;;11.30;99.90;;;;;;5109017;28;20038;-61
2022/01/02 05:03:02;;;;;;;20.23;4.97;;;11.30;99.90;;;;;;5095946;28;20068;-62
2022/01/02 05:05:28;;;;;;;13.33;4.83;;;11.40;99.90;;;;;;5092064;28;20270;-61
2022/01/02 05:07:53;;;;;;;16.00;4.95;;;11.40;99.90;;;;;;5091915;28;20043;-62
2022/01/02 05:10:19;;;;;;;16.27;4.67;;;11.40;99.90;;;;;;5092276;28;20044;-61
2022/01/02 05:12:45;;;;;;;13.50;4.70;;;11.40;99.90;;;;;;5092394;28;20331;-62
2022/01/02 05:15:10;;;;;;;14.67;5.77;;;11.40;99.90;;;;;;5092103;28;20093;-60
2022/01/02 05:17:36;;;;;;;13.38;5.28;;;11.40;99.90;;;;;;5102903;28;20061;-58
2022/01/02 05:20:03;;;;;;;13.35;4.97;;;11.50;99.90;;;;;;5079351;28;20067;-61
2022/01/02 05:22:28;;;;;;;13.00;4.22;;;11.50;99.90;;;;;;5100500;28;20465;-61
2022/01/02 05:24:54;;;;;;;10.77;3.60;;;11.50;99.90;;;;;;5085551;28;20104;-61
2022/01/02 05:27:19;;;;;;;8.87;4.17;;;11.60;99.90;;;;;;5103735;28;20044;-58
2022/01/02 05:29:45;;;;;;;15.07;5.50;;;11.60;99.90;;;;;;5100899;28;20036;-61
2022/01/02 05:32:10;;;;;;;12.43;4.43;;;11.70;99.90;;;;;;5104438;28;20102;-61
2022/01/02 05:34:36;;;;;;;16.20;4.47;;;11.70;99.90;;;;;;5110695;28;20322;-62
2022/01/02 05:37:02;;;;;;;14.53;4.50;;;11.70;99.90;;;;;;5094934;28;20051;-60
2022/01/02 05:39:27;;;;;;;13.68;4.68;;;11.70;99.90;;;;;;5084660;28;20028;-59
2022/01/02 05:41:53;;;;;;;10.57;3.53;;;11.80;99.90;;;;;;5099436;28;20035;-61
2022/01/02 05:44:19;;;;;;;16.15;4.00;;;11.80;99.90;;;;;;5112296;28;20093;-60
2022/01/02 05:46:45;;;;;;;14.95;5.50;;;11.90;99.90;;;;;;5075290;28;20115;-62
2022/01/02 05:49:11;;;;;;;15.05;4.43;;;11.90;99.90;;;;;;5080297;28;20047;-61
2022/01/02 05:51:37;;;;;;;6.20;2.15;;;12.00;99.90;;;;;;5113286;28;20047;-59
2022/01/02 05:54:03;;;;;;;14.80;3.40;;;12.10;99.90;;;;;;5108287;28;20404;-61
2022/01/02 05:56:29;;;;;;;11.63;2.70;;;12.20;99.90;;;;;;5111601;28;20048;-61
2022/01/02 05:58:55;;;;;;;9.88;2.63;;;12.20;99.90;;;;;;5107118;28;20031;-62
2022/01/02 06:01:21;;;;;;;11.52;2.30;;;12.30;99.90;;;;;;5085178;28;20036;-61
2022/01/02 06:03:47;;;;;;;10.60;3.83;;;12.30;99.90;;;;;;5091763;28;20457;-61
2022/01/02 06:06:12;;;;;;;6.28;3.00;;;12.30;99.90;;;;;;5090797;28;20119;-60
2022/01/02 06:08:38;;;;;;;11.40;3.33;;;12.30;99.90;;;;;;5090929;28;20051;-59
2022/01/02 06:11:04;;;;;;;10.10;2.65;;;12.30;99.90;;;;;;5091416;28;20119;-62
2022/01/02 06:13:29;;;;;;;9.63;2.88;;;12.30;99.90;;;;;;5091266;28;20166;-62
2022/01/02 06:15:55;;;;;;;10.40;2.28;;;12.30;99.90;;;;;;5090853;28;20032;-62
2022/01/02 06:18:21;;;;;;;9.63;2.70;;;12.30;99.90;;;;;;5090789;28;20040;-60
2022/01/02 06:20:46;;;;;;;8.82;2.45;;;12.20;99.90;;;;;;5090712;28;20051;-62
2022/01/02 06:23:12;;;;;;;8.73;2.80;;;12.20;99.90;;;;;;5091079;28;20028;-62
2022/01/02 06:25:37;;;;;;;9.07;3.10;;;12.20;99.90;;;;;;5090662;28;20673;-60
2022/01/02 06:28:03;;;;;;;12.60;3.20;;;12.20;99.90;;;;;;5090749;28;20036;-62
2022/01/02 06:30:29;;;;;;;9.82;2.22;;;12.20;99.90;;;;;;5090727;28;20534;-61
2022/01/02 06:32:55;;;;;;;9.68;2.22;;;12.20;99.90;;;;;;5076857;28;20122;-62
2022/01/02 06:35:25;;;;;;;9.93;3.45;;;12.20;99.90;;;;;;5104370;28;20130;-61
2022/01/02 06:37:52;;;;;;;8.50;2.70;;;12.20;99.90;;;;;;5107301;28;20036;-62
2022/01/02 06:40:18;;;;;;;8.55;3.15;;;12.20;99.90;;;;;;5092041;28;20039;-62
2022/01/02 06:42:44;;;;;;;12.43;2.65;;;12.20;99.90;;;;;;5103481;28;20455;-61
2022/01/02 06:45:11;;;;;;;14.68;3.15;;;12.10;99.90;;;;;;5106419;28;20032;-61
2022/01/02 06:47:36;;;;;;;10.13;3.22;;;12.10;99.90;;;;;;5091439;28;20513;-61
2022/01/02 06:50:03;;;;;;;13.45;3.53;;;12.10;99.90;;;;;;5099016;28;20075;-62
2022/01/02 06:52:28;;;;;;;12.27;3.35;;;12.10;99.90;;;;;;5091736;28;20036;-62
2022/01/02 06:54:54;;;;;;;11.33;4.00;;;12.00;99.90;;;;;;5107584;28;20051;-62
2022/01/02 06:57:21;;;;;;;6.13;3.03;;;12.00;99.90;;;;;;5110344;28;20032;-62
2022/01/02 06:59:48;;;;;;;16.02;4.18;;;12.00;99.90;;;;;;5103514;28;20036;-62
2022/01/02 07:02:14;;;;;;;10.00;3.33;;;12.00;99.90;;;;;;5091284;28;20089;-61
2022/01/02 07:04:40;;;;;;;;;;;12.00;99.90;;;;;;5106597;28;20078;-60
2022/01/02 07:07:05;;;;;;;12.77;3.95;;;12.00;99.90;;;;;;5091098;28;19922;-61
2022/01/02 07:09:32;;;;;;;16.70;4.50;;;12.00;99.90;;;;;;5105453;28;20184;-61
2022/01/02 07:11:59;;;;;;;10.40;3.72;;;11.90;99.90;;;;;;5093094;28;20169;-62
2022/01/02 07:14:27;;;;;;;10.90;3.80;;;11.90;99.90;;;;;;5083415;28;20055;-61
2022/01/02 07:16:56;;;;;;;8.65;3.70;;;11.90;99.90;;;;;;5094800;28;20114;-61
2022/01/02 07:19:21;;;;;;;12.52;4.95;;;11.90;99.90;;;;;;5099806;28;20040;-62
2022/01/02 07:21:51;;;;;;;13.40;4.25;;;11.90;99.90;;;;;;5104567;28;20580;-60
2022/01/02 07:24:17;;;;;;;6.50;2.97;;;11.90;99.90;;;;;;5101977;28;20485;-59
2022/01/02 07:26:43;;;;;;;11.60;3.63;;;11.90;99.90;;;;;;5098509;28;20036;-59
2022/01/02 07:29:09;;;;;;;9.80;4.68;;;11.90;99.90;;;;;;5091251;28;20097;-61
2022/01/02 07:31:35;;;;;;;9.88;4.00;;;11.90;99.90;;;;;;5097597;28;20039;-60
2022/01/02 07:34:01;;;;;;;7.88;3.20;;;11.90;99.90;;;;;;5108705;28;20511;-60
2022/01/02 07:36:26;;;;;;;7.17;3.23;;;11.90;99.90;;;;;;5108197;28;20032;-61
2022/01/02 07:38:52;;;;;;;8.57;3.43;;;11.90;99.90;;;;;;5097943;28;20325;-61
2022/01/02 07:41:18;;;;;;;9.47;3.40;;;11.90;99.90;;;;;;5071733;28;20455;-61
2022/01/02 07:43:43;;;;;;;12.68;3.95;;;12.00;99.90;;;;;;5098937;28;20035;-61
2022/01/02 07:46:09;;;;;;;10.27;3.22;;;12.00;99.90;;;;;;5093227;28;20119;-60
2022/01/02 07:48:35;;;;;;;10.75;3.42;;;12.00;99.90;;;;;;5099296;28;20039;-62
2022/01/02 07:51:01;;;;;;;11.70;4.07;;;12.00;99.90;;;;;;5103446;28;20031;-60
2022/01/02 07:53:26;;;;;;;9.47;2.87;;;11.90;99.90;;;;;;5111527;28;20042;-62
2022/01/02 07:55:52;;;;;;;8.17;2.57;;;12.00;99.90;;;;;;5093339;28;20067;-59
2022/01/02 07:58:17;;;;;;;10.55;3.80;;;12.00;99.90;;;;;;5111325;28;20543;-61
2022/01/02 08:00:43;;;;;;;9.83;3.30;;;11.90;99.90;;;;;;5078952;28;20036;-61
2022/01/02 08:03:09;;;;;;;10.75;3.13;;;11.90;99.90;;;;;;5092638;28;20086;-61
2022/01/02 08:05:35;;;;;;;10.55;3.47;;;11.90;99.90;;;;;;5093246;28;20046;-60
2022/01/02 08:08:00;;;;;;;7.82;2.70;;;11.90;99.90;;;;;;5075570;28;20527;-61
2022/01/02 08:10:27;;;;;;;4.30;2.73;;;11.90;99.90;;;;;;5095812;28;20043;-61
2022/01/02 08:12:53;;;;;;;9.05;3.53;;;11.90;99.90;;;;;;5106478;28;20040;-62
2022/01/02 08:15:19;;;;;;;12.18;3.00;;;11.90;99.90;;;;;;5083729;28;20047;-59
2022/01/02 08:17:45;;;;;;;7.85;3.17;;;12.00;99.90;;;;;;5094670;28;20028;-62
2022/01/02 08:20:11;;;;;;;8.40;2.67;;;12.00;99.90;;;;;;5104164;28;20114;-61
2022/01/02 08:22:36;;;;;;;7.78;3.17;;;11.90;99.90;;;;;;5100891;28;20588;-61
2022/01/02 08:25:03;;;;;;;5.57;2.57;;;11.90;99.90;;;;;;5108596;28;20035;-61
2022/01/02 08:27:29;;;;;;;6.40;3.15;;;11.90;99.90;;;;;;5103797;28;20274;-59
2022/01/02 08:29:55;;;;;;;11.40;2.85;;;11.90;99.90;;;;;;5101292;28;20241;-59
2022/01/02 08:32:21;;;;;;;10.77;3.17;;;11.90;99.90;;;;;;5104412;28;20035;-60
2022/01/02 08:34:46;;;;;;;7.40;2.90;;;11.80;99.90;;;;;;5086489;28;20412;-61
2022/01/02 08:37:15;;;;;;;9.85;2.92;;;11.80;99.90;;;;;;5090796;28;20054;-61
2022/01/02 08:39:42;;;;;;;10.98;2.83;;;11.80;99.90;;;;;;5093323;28;20115;-62
2022/01/02 08:42:08;;;;;;;8.95;2.90;;;11.70;99.90;;;;;;5097564;28;20115;-59
2022/01/02 08:44:34;;;;;;;6.20;3.50;;;11.70;99.90;;;;;;5100577;28;20404;-61
2022/01/02 08:46:59;;;;;;;5.53;2.17;;;11.70;99.90;;;;;;5106142;28;20039;-59
2022/01/02 08:49:25;;;;;;;10.30;3.10;;;11.70;99.90;;;;;;5099375;28;20490;-59
2022/01/02 08:51:51;;;;;;;7.88;3.58;;;11.70;99.90;;;;;;5079081;28;20044;-60
2022/01/02 08:54:17;;;;;;;11.38;2.97;;;11.80;99.90;;;;;;5110455;28;20040;-59
2022/01/02 08:56:42;;;;;;;11.20;3.50;;;11.80;99.90;;;;;;5087350;28;20052;-58
2022/01/02 08:59:08;;;;;;;5.13;2.47;;;11.80;99.90;;;;;;5073693;28;20242;-59
2022/01/02 09:01:34;;;;;;;7.13;3.43;;;11.80;99.90;;;;;;5093196;28;20088;-58
2022/01/02 09:03:59;;;;;;;9.18;3.42;;;11.80;99.90;;;;;;5091200;28;20504;-60
2022/01/02 09:06:25;;;;;;;6.47;2.30;;;11.80;99.90;;;;;;5091907;28;20040;-59
2022/01/02 09:08:50;;;;;;;10.47;2.63;;;11.70;99.90;;;;;;5091915;28;20193;-58
2022/01/02 09:11:16;;;;;;;4.43;2.53;;;11.70;99.90;;;;;;5074128;28;20338;-61
2022/01/02 09:13:41;;;;;;;6.00;2.33;;;11.70;99.90;;;;;;5091963;28;20042;-63
2022/01/02 09:16:07;;;;;;;10.03;2.53;;;11.70;99.90;;;;;;5091708;28;20079;-60
2022/01/02 09:18:33;;;;;;;5.90;3.13;;;11.60;99.90;;;;;;5091495;28;20269;-61
2022/01/02 09:20:59;;;;;;;5.15;2.92;;;11.60;99.90;;;;;;5092375;28;20044;-62
2022/01/02 09:23:25;;;;;;;11.70;2.88;;;11.60;99.90;;;;;;5092072;28;20089;-62
2022/01/02 09:25:50;;;;;;;8.33;2.77;;;11.60;99.90;;;;;;5091743;28;20043;-62
2022/01/02 09:28:16;;;;;;;7.37;2.60;;;11.60;99.90;;;;;;5091616;28;20132;-61
2022/01/02 09:30:42;;;;;;;8.32;2.90;;;11.60;99.90;;;;;;5091694;28;20278;-63
2022/01/02 09:33:08;;;;;;;7.63;3.47;;;11.60;99.90;;;;;;5091969;28;20044;-60
2022/01/02 09:35:40;;;;;;;7.05;2.30;;;11.60;99.90;;;;;;5091352;28;20047;-61
2022/01/02 09:38:07;;;;;;;10.80;3.17;;;11.60;99.90;;;;;;5091532;28;20044;-62
2022/01/02 09:40:34;;;;;;;11.95;3.88;;;11.70;99.90;;;;;;5091732;28;20047;-61
2022/01/02 09:43:00;;;;;;;8.90;2.83;;;11.70;99.90;;;;;;5091314;28;20115;-60
2022/01/02 09:45:27;;;;;;;8.32;2.80;;;11.70;99.90;;;;;;5091087;28;20047;-61
2022/01/02 09:47:53;;;;;;;11.20;3.38;;;11.70;99.90;;;;;;5091330;28;20059;-60
2022/01/02 09:50:18;;;;;;;6.25;2.58;;;11.70;99.90;;;;;;5093459;28;20520;-60
2022/01/02 09:52:45;;;;;;;7.45;3.33;;;11.70;99.90;;;;;;5083852;28;20126;-59
2022/01/02 09:55:11;;;;;;;9.13;3.78;;;11.70;99.90;;;;;;5091072;28;20450;-59
2022/01/02 09:57:45;;;;;;;9.77;3.53;;;11.70;99.90;;;;;;5084507;28;20127;-57
2022/01/02 10:00:12;;;;;;;9.85;3.10;;;11.70;99.90;;;;;;5077868;28;20043;-57
2022/01/02 10:02:56;;;;;;;9.35;3.20;;;11.70;99.90;;;;;;5103936;28;20027;-56
2022/01/02 10:05:24;;;;;;;10.77;3.78;;;11.70;99.90;;;;;;5091977;28;20399;-59
2022/01/02 10:07:53;;;;;;;8.70;2.58;;;11.70;99.90;;;;;;5091929;28;20047;-60
2022/01/02 10:10:20;;;;;;;4.22;2.58;;;11.70;99.90;;;;;;5097940;28;20035;-60
2022/01/02 10:12:45;;;;;;;16.40;3.85;;;11.70;99.90;;;;;;5094365;28;20779;-60
2022/01/02 10:15:13;;;;;;;6.95;2.80;;;11.80;99.90;;;;;;5101894;28;20040;-57
2022/01/02 10:17:59;;;;;;;8.40;3.40;;;11.80;99.90;;;;;;5084025;28;20044;-58
2022/01/02 10:20:34;;;;;;;5.88;2.75;;;11.80;99.90;;;;;;5087545;28;20043;-56
2022/01/02 10:23:10;;;;;;;7.15;2.95;;;11.90;99.90;;;;;;5098622;28;20068;-56
2022/01/02 10:25:42;;;;;;;8.02;3.85;;;11.90;99.90;;;;;;5094566;28;20044;-57
2022/01/02 10:28:49;;;;;;;8.07;2.85;;;12.00;99.90;;;;;;5092923;28;20381;-57
2022/01/02 10:31:16;;;;;;;8.38;2.85;;;12.00;99.90;;;;;;5108342;28;20039;-57
2022/01/02 10:33:55;;;;;;;5.95;2.53;;;12.00;99.90;;;;;;5095796;28;20070;-58
2022/01/02 10:36:29;;;;;;;10.65;3.08;;;12.10;99.90;;;;;;5090512;28;20549;-56
2022/01/02 10:39:14;;;;;;;8.98;3.20;;;12.10;99.90;;;;;;5098257;28;20503;-57
2022/01/02 10:41:50;;;;;;;9.00;3.30;;;12.20;99.90;;;;;;5089944;28;20035;-60
2022/01/02 10:44:31;;;;;;;7.90;3.83;;;12.20;99.90;;;;;;5104853;28;20043;-59
2022/01/02 10:47:14;;;;;;;7.47;3.13;;;12.30;99.90;;;;;;5095946;28;20047;-58
2022/01/02 10:50:08;;;;;;;8.23;2.78;;;12.30;99.90;;;;;;5090839;28;20040;-59
2022/01/02 10:52:38;;;;;;;9.25;2.50;;;12.30;99.90;;;;;;5083597;28;20044;-57
2022/01/02 10:55:20;;;;;;;7.40;3.65;;;12.30;99.90;;;;;;5083349;28;20039;-59
2022/01/02 10:57:49;;;;;;;10.45;3.17;;;12.30;99.90;;;;;;5097572;28;20152;-58
2022/01/02 11:00:17;;;;;;;5.90;2.83;;;12.20;99.90;;;;;;5106312;28;20042;-58
2022/01/02 11:02:44;;;;;;;6.15;2.90;;;12.20;99.90;;;;;;5098450;28;20039;-55
2022/01/02 11:05:12;;;;;;;11.77;3.20;;;12.30;99.90;;;;;;5098543;28;20466;-56
2022/01/02 11:07:45;;;;;;;9.98;3.55;;;12.20;99.90;;;;;;5098387;28;20047;-56
2022/01/02 11:10:16;;;;;;;4.53;2.85;;;12.30;99.90;;;;;;5082047;28;20040;-57
2022/01/02 11:12:43;;;;;;;7.10;3.65;;;12.20;99.90;;;;;;5105667;28;20058;-58
2022/01/02 11:15:17;;;;;;;6.70;2.55;;;12.30;99.90;;;;;;5095957;28;20078;-58
2022/01/02 11:17:43;;;;;;;4.40;2.88;;;12.20;99.90;;;;;;5098211;28;20031;-59
2022/01/02 11:20:11;;;;;;;8.07;3.42;;;12.30;99.90;;;;;;5078601;28;20047;-60
2022/01/02 11:22:52;;;;;;;7.22;3.17;;;12.30;99.90;;;;;;5087857;28;20040;-58
2022/01/02 11:25:36;;;;;;;13.32;3.90;;;12.20;99.90;;;;;;5097089;28;20062;-58
2022/01/02 11:28:05;;;;;;;7.53;3.70;;;12.20;99.90;;;;;;5081063;28;20044;-55
2022/01/02 11:30:31;;;;;;;5.28;3.05;;;12.20;99.90;;;;;;5093689;28;20050;-57
2022/01/02 11:33:04;;;;;;;8.00;4.00;;;12.20;99.90;;;;;;5094267;28;20135;-59
2022/01/02 11:35:35;;;;;;;9.55;3.58;;;12.30;99.90;;;;;;5079672;28;20040;-56
2022/01/02 11:38:02;;;;;;;6.80;3.55;;;12.30;99.90;;;;;;5100262;28;20036;-59
2022/01/02 11:40:42;;;;;;;8.85;3.42;;;12.20;99.90;;;;;;5094977;28;20046;-57
2022/01/02 11:43:07;;;;;;;8.68;3.17;;;12.20;99.90;;;;;;5094110;28;20078;-56
2022/01/02 11:45:41;;;;;;;9.43;3.80;;;12.30;99.90;;;;;;5093516;28;20075;-56
2022/01/02 11:48:28;;;;;;;13.65;3.97;;;12.30;99.90;;;;;;5093723;28;20278;-56
2022/01/02 11:50:54;;;;;;;;;;;12.30;99.90;;;;;;5101501;28;20046;-56
2022/01/02 11:53:23;;;;;;;8.48;3.28;;;12.30;99.90;;;;;;5102553;28;19920;-57
2022/01/02 11:55:50;;;;;;;8.60;3.33;;;12.30;99.90;;;;;;5107153;28;20055;-56
2022/01/02 11:58:38;;;;;;;11.30;3.55;;;12.30;99.90;;;;;;5103643;28;20527;-58
2022/01/02 12:01:04;;;;;;;8.68;3.22;;;12.20;99.90;;;;;;5089696;28;20047;-57
2022/01/02 12:03:38;;;;;;;11.10;4.30;;;12.20;99.90;;;;;;5102614;28;20050;-57
2022/01/02 12:06:13;;;;;;;8.65;3.17;;;12.20;99.90;;;;;;5093570;28;20044;-57
2022/01/02 12:08:38;;;;;;;7.70;3.50;;;12.10;99.90;;;;;;5094422;28;20044;-58
2022/01/02 12:11:30;;;;;;;10.67;3.97;;;12.10;99.90;;;;;;5077624;28;20531;-56
2022/01/02 12:14:11;;;;;;;8.45;3.42;;;12.10;99.90;;;;;;5093317;28;20040;-58
2022/01/02 12:16:42;;;;;;;10.57;3.95;;;12.10;99.90;;;;;;5093113;28;20119;-56
2022/01/02 12:19:08;;;;;;;13.45;3.97;;;12.10;99.90;;;;;;5094231;28;20552;-59
2022/01/02 12:21:35;;;;;;;7.95;4.07;;;12.10;99.90;;;;;;5096372;28;20031;-58
2022/01/02 12:24:02;;;;;;;;;;;12.10;99.90;;;;;;5094316;28;20040;-60
2022/01/02 12:26:34;;;;;;;8.80;3.35;;;12.10;99.90;;;;;;5074738;28;20015;-58
2022/01/02 12:29:06;;;;;;;8.70;3.50;;;12.10;99.90;;;;;;5093909;28;20067;-56
2022/01/02 12:31:42;;;;;;;7.75;3.30;;;12.10;99.90;;;;;;5092375;28;20032;-58
2022/01/02 12:34:18;;;;;;;6.38;2.97;;;12.20;99.90;;;;;;5094222;28;20044;-57
2022/01/02 12:36:47;;;;;;;4.97;2.83;;;12.20;99.90;;;;;;5092830;28;20458;-57
2022/01/02 12:39:15;;;;;;;8.77;3.38;;;12.20;99.90;;;;;;5094041;28;20028;-57
2022/01/02 12:41:43;;;;;;;13.52;3.53;;;12.30;99.90;;;;;;5092709;28;20028;-56
2022/01/02 12:44:16;;;;;;;8.88;3.33;;;12.20;99.90;;;;;;5092984;28;20036;-57
2022/01/02 12:46:48;;;;;;;6.75;3.33;;;12.30;99.90;;;;;;5061488;28;20036;-58
2022/01/02 12:49:20;;;;;;;14.23;3.42;;;12.30;99.90;;;;;;5118597;28;20036;-58
2022/01/02 12:51:50;;;;;;;11.80;2.95;;;12.20;99.90;;;;;;5109741;28;20040;-60
2022/01/02 12:54:21;;;;;;;8.88;2.85;;;12.20;99.90;;;;;;5095792;28;20549;-57